sensor_id;sensor_type;location;lat;lon;timestamp;pressure;altitude;pressure_sealevel;temperature;humidity
54900;BME280;40801;41.924;25.562;2022-12-11T00:01:21;97942.63;;;17.39;71.53
54900;BME280;40801;41.924;25.562;2022-12-11T00:03:48;97927.47;;;17.48;71.08
54900;BME280;40801;41.924;25.562;2022-12-11T00:06:16;97931.75;;;17.46;71.30
54900;BME280;40801;41.924;25.562;2022-12-11T00:08:42;97921.63;;;17.43;71.39
54900;BME280;40801;41.924;25.562;2022-12-11T00:11:08;97921.25;;;17.44;71.40
54900;BME280;40801;41.924;25.562;2022-12-11T00:13:35;97921.63;;;17.46;71.28
54900;BME280;40801;41.924;25.562;2022-12-11T00:16:00;97936.44;;;17.52;71.08
54900;BME280;40801;41.924;25.562;2022-12-11T00:18:26;97939.56;;;17.58;70.50
54900;BME280;40801;41.924;25.562;2022-12-11T00:20:51;97939.16;;;17.56;70.42
54900;BME280;40801;41.924;25.562;2022-12-11T00:23:17;97938.84;;;17.68;69.78
54900;BME280;40801;41.924;25.562;2022-12-11T00:25:44;97941.97;;;17.70;69.85
54900;BME280;40801;41.924;25.562;2022-12-11T00:28:11;97918.59;;;17.69;69.82
54900;BME280;40801;41.924;25.562;2022-12-11T00:30:41;97908.09;;;17.75;69.30
54900;BME280;40801;41.924;25.562;2022-12-11T00:33:07;97889.00;;;17.71;69.08
54900;BME280;40801;41.924;25.562;2022-12-11T00:35:37;97862.91;;;17.77;68.99
54900;BME280;40801;41.924;25.562;2022-12-11T00:38:02;97854.34;;;17.72;68.74
54900;BME280;40801;41.924;25.562;2022-12-11T00:40:28;97851.22;;;17.80;69.00
54900;BME280;40801;41.924;25.562;2022-12-11T00:42:53;97840.31;;;17.77;68.97
54900;BME280;40801;41.924;25.562;2022-12-11T00:45:19;97831.34;;;17.73;69.15
54900;BME280;40801;41.924;25.562;2022-12-11T00:47:44;97823.56;;;17.75;69.21
54900;BME280;40801;41.924;25.562;2022-12-11T00:50:09;97804.88;;;17.70;69.43
54900;BME280;40801;41.924;25.562;2022-12-11T00:52:36;97797.44;;;17.77;69.17
54900;BME280;40801;41.924;25.562;2022-12-11T00:55:01;97785.78;;;17.73;69.51
54900;BME280;40801;41.924;25.562;2022-12-11T00:57:27;97767.06;;;17.75;69.51
54900;BME280;40801;41.924;25.562;2022-12-11T00:59:52;97791.59;;;17.86;69.09
54900;BME280;40801;41.924;25.562;2022-12-11T01:02:18;97788.88;;;17.82;69.11
54900;BME280;40801;41.924;25.562;2022-12-11T01:04:43;97790.03;;;17.88;69.05
54900;BME280;40801;41.924;25.562;2022-12-11T01:07:08;97771.75;;;17.82;69.13
54900;BME280;40801;41.924;25.562;2022-12-11T01:09:34;97778.34;;;17.84;69.02
54900;BME280;40801;41.924;25.562;2022-12-11T01:12:18;97773.28;;;17.83;69.21
54900;BME280;40801;41.924;25.562;2022-12-11T01:14:43;97766.66;;;17.91;68.85
54900;BME280;40801;41.924;25.562;2022-12-11T01:17:09;97764.72;;;17.77;69.12
54900;BME280;40801;41.924;25.562;2022-12-11T01:19:34;97786.91;;;18.04;68.68
54900;BME280;40801;41.924;25.562;2022-12-11T01:22:00;97793.13;;;18.08;68.41
54900;BME280;40801;41.924;25.562;2022-12-11T01:24:25;97786.47;;;18.16;68.13
54900;BME280;40801;41.924;25.562;2022-12-11T01:26:50;97789.97;;;18.20;68.03
54900;BME280;40801;41.924;25.562;2022-12-11T01:29:16;97791.53;;;18.29;67.61
54900;BME280;40801;41.924;25.562;2022-12-11T01:31:41;97791.16;;;18.12;67.91
54900;BME280;40801;41.924;25.562;2022-12-11T01:34:07;97771.25;;;18.26;67.74
54900;BME280;40801;41.924;25.562;2022-12-11T01:36:32;97756.47;;;18.23;67.70
54900;BME280;40801;41.924;25.562;2022-12-11T01:38:57;97788.41;;;18.16;68.30
54900;BME280;40801;41.924;25.562;2022-12-11T01:41:23;97782.19;;;18.22;68.15
54900;BME280;40801;41.924;25.562;2022-12-11T01:43:58;97762.69;;;18.27;67.99
54900;BME280;40801;41.924;25.562;2022-12-11T01:46:25;97770.84;;;18.35;67.86
54900;BME280;40801;41.924;25.562;2022-12-11T01:48:52;97768.09;;;18.38;67.60
54900;BME280;40801;41.924;25.562;2022-12-11T01:51:18;97733.00;;;18.37;67.69
54900;BME280;40801;41.924;25.562;2022-12-11T01:53:49;97732.22;;;18.36;67.62
54900;BME280;40801;41.924;25.562;2022-12-11T01:56:15;97726.84;;;18.22;68.20
54900;BME280;40801;41.924;25.562;2022-12-11T01:58:55;97738.06;;;18.38;67.42
54900;BME280;40801;41.924;25.562;2022-12-11T02:04:00;97712.78;;;18.31;67.85
54900;BME280;40801;41.924;25.562;2022-12-11T02:06:43;97712.41;;;18.25;67.80
54900;BME280;40801;41.924;25.562;2022-12-11T02:09:12;97703.38;;;18.39;67.32
54900;BME280;40801;41.924;25.562;2022-12-11T02:14:32;97695.59;;;18.34;67.71
54900;BME280;40801;41.924;25.562;2022-12-11T02:25:21;97694.34;;;18.52;66.58
54900;BME280;40801;41.924;25.562;2022-12-11T02:30:45;97685.38;;;18.52;66.85
54900;BME280;40801;41.924;25.562;2022-12-11T02:33:13;97697.09;;;18.45;66.84
54900;BME280;40801;41.924;25.562;2022-12-11T02:35:42;97694.28;;;18.60;66.56
54900;BME280;40801;41.924;25.562;2022-12-11T02:38:11;97669.03;;;18.41;67.39
54900;BME280;40801;41.924;25.562;2022-12-11T02:40:40;97678.00;;;18.42;67.40
54900;BME280;40801;41.924;25.562;2022-12-11T02:43:09;97690.47;;;18.43;67.46
54900;BME280;40801;41.924;25.562;2022-12-11T02:45:38;97672.19;;;18.36;67.69
54900;BME280;40801;41.924;25.562;2022-12-11T02:48:05;97689.31;;;18.44;67.76
54900;BME280;40801;41.924;25.562;2022-12-11T02:50:35;97672.53;;;18.42;67.74
54900;BME280;40801;41.924;25.562;2022-12-11T02:53:03;97669.41;;;18.43;67.71
54900;BME280;40801;41.924;25.562;2022-12-11T02:55:32;97671.00;;;18.41;67.57
54900;BME280;40801;41.924;25.562;2022-12-11T03:00:28;97677.28;;;18.34;68.06
54900;BME280;40801;41.924;25.562;2022-12-11T03:02:53;97663.97;;;18.40;67.98
54900;BME280;40801;41.924;25.562;2022-12-11T03:05:19;97678.34;;;18.54;66.93
54900;BME280;40801;41.924;25.562;2022-12-11T03:07:44;97656.19;;;18.38;67.42
54900;BME280;40801;41.924;25.562;2022-12-11T03:10:13;97648.34;;;18.47;66.87
54900;BME280;40801;41.924;25.562;2022-12-11T03:12:42;97631.59;;;18.42;67.26
54900;BME280;40801;41.924;25.562;2022-12-11T03:15:10;97646.38;;;18.51;66.46
54900;BME280;40801;41.924;25.562;2022-12-11T03:17:50;97605.84;;;18.46;66.75
54900;BME280;40801;41.924;25.562;2022-12-11T03:22:46;97617.59;;;18.36;67.33
54900;BME280;40801;41.924;25.562;2022-12-11T03:25:21;97607.03;;;18.42;67.15
54900;BME280;40801;41.924;25.562;2022-12-11T03:27:54;97598.91;;;18.35;67.29
54900;BME280;40801;41.924;25.562;2022-12-11T03:30:22;97595.09;;;18.21;67.74
54900;BME280;40801;41.924;25.562;2022-12-11T03:35:24;97612.56;;;18.31;67.62
54900;BME280;40801;41.924;25.562;2022-12-11T03:37:52;97616.84;;;18.36;67.69
54900;BME280;40801;41.924;25.562;2022-12-11T03:40:20;97601.28;;;18.29;68.03
54900;BME280;40801;41.924;25.562;2022-12-11T03:42:51;97608.38;;;18.12;68.33
54900;BME280;40801;41.924;25.562;2022-12-11T03:45:19;97608.75;;;18.21;67.97
54900;BME280;40801;41.924;25.562;2022-12-11T03:47:46;97617.69;;;18.22;68.23
54900;BME280;40801;41.924;25.562;2022-12-11T03:50:13;97611.47;;;18.18;68.17
54900;BME280;40801;41.924;25.562;2022-12-11T03:52:41;97621.59;;;18.17;68.13
54900;BME280;40801;41.924;25.562;2022-12-11T03:55:08;97624.38;;;18.07;68.80
54900;BME280;40801;41.924;25.562;2022-12-11T03:57:36;97618.91;;;18.10;68.50
54900;BME280;40801;41.924;25.562;2022-12-11T04:00:14;97607.63;;;18.08;68.66
54900;BME280;40801;41.924;25.562;2022-12-11T04:02:40;97620.94;;;17.99;69.06
54900;BME280;40801;41.924;25.562;2022-12-11T04:05:06;97619.78;;;17.97;68.77
54900;BME280;40801;41.924;25.562;2022-12-11T04:07:32;97610.34;;;18.12;68.50
54900;BME280;40801;41.924;25.562;2022-12-11T04:09:57;97614.28;;;18.00;68.91
54900;BME280;40801;41.924;25.562;2022-12-11T04:12:23;97617.03;;;18.00;68.96
54900;BME280;40801;41.924;25.562;2022-12-11T04:14:48;97603.03;;;17.94;69.52
54900;BME280;40801;41.924;25.562;2022-12-11T04:17:35;97607.28;;;17.99;69.20
54900;BME280;40801;41.924;25.562;2022-12-11T04:20:19;97597.19;;;17.96;69.46
54900;BME280;40801;41.924;25.562;2022-12-11T04:23:05;97601.47;;;17.90;69.63
54900;BME280;40801;41.924;25.562;2022-12-11T04:25:49;97587.88;;;17.79;70.44
54900;BME280;40801;41.924;25.562;2022-12-11T04:28:14;97595.69;;;17.77;70.55
54900;BME280;40801;41.924;25.562;2022-12-11T04:30:40;97597.63;;;17.80;70.32
54900;BME280;40801;41.924;25.562;2022-12-11T04:33:11;97588.25;;;17.85;70.35
54900;BME280;40801;41.924;25.562;2022-12-11T04:35:36;97593.75;;;17.74;70.80
54900;BME280;40801;41.924;25.562;2022-12-11T04:38:02;97582.88;;;17.71;71.10
54900;BME280;40801;41.924;25.562;2022-12-11T04:40:27;97585.97;;;17.73;70.73
54900;BME280;40801;41.924;25.562;2022-12-11T04:42:53;97568.06;;;17.61;71.40
54900;BME280;40801;41.924;25.562;2022-12-11T04:45:18;97565.72;;;17.70;71.29
54900;BME280;40801;41.924;25.562;2022-12-11T04:47:44;97538.84;;;17.72;71.10
54900;BME280;40801;41.924;25.562;2022-12-11T04:50:11;97536.09;;;17.76;71.04
54900;BME280;40801;41.924;25.562;2022-12-11T04:52:36;97539.63;;;17.73;70.94
54900;BME280;40801;41.924;25.562;2022-12-11T04:55:06;97553.25;;;17.65;71.42
54900;BME280;40801;41.924;25.562;2022-12-11T04:57:33;97564.91;;;17.77;70.87
54900;BME280;40801;41.924;25.562;2022-12-11T04:59:58;97573.88;;;17.63;71.45
54900;BME280;40801;41.924;25.562;2022-12-11T05:02:24;97567.66;;;17.73;70.97
54900;BME280;40801;41.924;25.562;2022-12-11T05:04:50;97576.63;;;17.74;71.07
54900;BME280;40801;41.924;25.562;2022-12-11T05:07:16;97588.31;;;17.71;71.01
54900;BME280;40801;41.924;25.562;2022-12-11T05:09:41;97568.47;;;17.70;71.16
54900;BME280;40801;41.924;25.562;2022-12-11T05:12:07;97585.56;;;17.63;71.29
54900;BME280;40801;41.924;25.562;2022-12-11T05:14:33;97570.00;;;17.64;71.49
54900;BME280;40801;41.924;25.562;2022-12-11T05:16:59;97588.69;;;17.65;71.40
54900;BME280;40801;41.924;25.562;2022-12-11T05:19:25;97588.28;;;17.63;71.60
54900;BME280;40801;41.924;25.562;2022-12-11T05:21:50;97585.19;;;17.61;71.44
54900;BME280;40801;41.924;25.562;2022-12-11T05:24:16;97593.75;;;17.63;71.37
54900;BME280;40801;41.924;25.562;2022-12-11T05:26:41;97587.56;;;17.52;71.89
54900;BME280;40801;41.924;25.562;2022-12-11T05:29:07;97581.75;;;17.47;72.01
54900;BME280;40801;41.924;25.562;2022-12-11T05:31:32;97580.56;;;17.48;71.68
54900;BME280;40801;41.924;25.562;2022-12-11T05:33:57;97579.41;;;17.45;71.93
54900;BME280;40801;41.924;25.562;2022-12-11T05:36:33;97593.03;;;17.45;72.04
54900;BME280;40801;41.924;25.562;2022-12-11T05:38:59;97581.72;;;17.54;71.95
54900;BME280;40801;41.924;25.562;2022-12-11T05:41:27;97595.34;;;17.54;71.96
54900;BME280;40801;41.924;25.562;2022-12-11T05:43:53;97604.34;;;17.44;72.32
54900;BME280;40801;41.924;25.562;2022-12-11T05:46:19;97595.75;;;17.45;72.26
54900;BME280;40801;41.924;25.562;2022-12-11T05:48:47;97590.69;;;17.51;71.87
54900;BME280;40801;41.924;25.562;2022-12-11T05:51:14;97592.66;;;17.47;71.69
54900;BME280;40801;41.924;25.562;2022-12-11T05:53:40;97596.53;;;17.46;71.78
54900;BME280;40801;41.924;25.562;2022-12-11T05:56:10;97587.22;;;17.43;71.89
54900;BME280;40801;41.924;25.562;2022-12-11T05:58:36;97579.84;;;17.37;72.25
54900;BME280;40801;41.924;25.562;2022-12-11T06:01:05;97596.94;;;17.44;71.58
54900;BME280;40801;41.924;25.562;2022-12-11T06:03:31;97601.59;;;17.44;71.25
54900;BME280;40801;41.924;25.562;2022-12-11T06:05:56;97605.50;;;17.46;71.11
54900;BME280;40801;41.924;25.562;2022-12-11T06:08:22;97622.22;;;17.52;70.90
54900;BME280;40801;41.924;25.562;2022-12-11T06:10:48;97610.91;;;17.68;70.55
54900;BME280;40801;41.924;25.562;2022-12-11T06:13:15;97616.75;;;17.70;70.75
54900;BME280;40801;41.924;25.562;2022-12-11T06:15:40;97626.47;;;17.71;70.49
54900;BME280;40801;41.924;25.562;2022-12-11T06:18:06;97640.47;;;17.76;70.43
54900;BME280;40801;41.924;25.562;2022-12-11T06:20:32;97649.06;;;17.75;70.38
54900;BME280;40801;41.924;25.562;2022-12-11T06:22:58;97662.69;;;17.75;70.41
54900;BME280;40801;41.924;25.562;2022-12-11T06:25:24;97662.28;;;17.76;70.20
54900;BME280;40801;41.924;25.562;2022-12-11T06:27:49;97652.94;;;17.81;70.53
54900;BME280;40801;41.924;25.562;2022-12-11T06:30:15;97660.34;;;17.77;70.81
54900;BME280;40801;41.924;25.562;2022-12-11T06:32:41;97655.66;;;17.81;70.59
54900;BME280;40801;41.924;25.562;2022-12-11T06:35:07;97653.69;;;17.88;70.26
54900;BME280;40801;41.924;25.562;2022-12-11T06:37:34;97657.16;;;18.00;69.75
54900;BME280;40801;41.924;25.562;2022-12-11T06:40:00;97666.09;;;18.04;69.57
54900;BME280;40801;41.924;25.562;2022-12-11T06:42:25;97674.66;;;18.09;69.41
54900;BME280;40801;41.924;25.562;2022-12-11T06:44:51;97672.69;;;18.13;69.57
54900;BME280;40801;41.924;25.562;2022-12-11T06:47:16;97676.97;;;18.14;69.04
54900;BME280;40801;41.924;25.562;2022-12-11T06:49:42;97668.75;;;18.18;68.62
54900;BME280;40801;41.924;25.562;2022-12-11T06:52:07;97671.50;;;18.21;68.59
54900;BME280;40801;41.924;25.562;2022-12-11T06:54:32;97676.16;;;18.24;68.21
54900;BME280;40801;41.924;25.562;2022-12-11T06:56:58;97680.03;;;18.31;67.52
54900;BME280;40801;41.924;25.562;2022-12-11T06:59:23;97677.28;;;18.31;67.14
54900;BME280;40801;41.924;25.562;2022-12-11T07:01:48;97676.88;;;18.36;67.00
54900;BME280;40801;41.924;25.562;2022-12-11T07:04:14;97678.38;;;18.44;66.64
54900;BME280;40801;41.924;25.562;2022-12-11T07:06:39;97673.72;;;18.41;66.59
54900;BME280;40801;41.924;25.562;2022-12-11T07:09:05;97684.19;;;18.49;66.07
54900;BME280;40801;41.924;25.562;2022-12-11T07:11:31;97687.66;;;18.64;65.86
54900;BME280;40801;41.924;25.562;2022-12-11T07:13:59;97691.56;;;18.67;65.61
54900;BME280;40801;41.924;25.562;2022-12-11T07:16:26;97691.44;;;18.84;64.96
54900;BME280;40801;41.924;25.562;2022-12-11T07:18:51;97695.69;;;18.89;65.09
54900;BME280;40801;41.924;25.562;2022-12-11T07:21:19;97693.25;;;19.02;64.45
54900;BME280;40801;41.924;25.562;2022-12-11T07:23:45;97702.97;;;19.06;64.38
54900;BME280;40801;41.924;25.562;2022-12-11T07:26:13;97711.50;;;19.19;63.78
54900;BME280;40801;41.924;25.562;2022-12-11T07:28:40;97698.31;;;19.03;63.98
54900;BME280;40801;41.924;25.562;2022-12-11T07:31:10;97714.63;;;19.17;63.71
54900;BME280;40801;41.924;25.562;2022-12-11T07:33:36;97720.41;;;19.27;63.20
54900;BME280;40801;41.924;25.562;2022-12-11T07:36:03;97706.38;;;19.25;63.59
54900;BME280;40801;41.924;25.562;2022-12-11T07:38:28;97708.25;;;19.31;62.55
54900;BME280;40801;41.924;25.562;2022-12-11T07:40:55;97723.41;;;19.43;62.56
54900;BME280;40801;41.924;25.562;2022-12-11T07:43:24;97717.09;;;19.49;62.58
54900;BME280;40801;41.924;25.562;2022-12-11T07:45:49;97708.44;;;19.58;61.95
54900;BME280;40801;41.924;25.562;2022-12-11T07:48:15;97706.88;;;19.57;61.87
54900;BME280;40801;41.924;25.562;2022-12-11T07:50:40;97698.72;;;19.50;62.17
54900;BME280;40801;41.924;25.562;2022-12-11T07:53:05;97699.88;;;19.56;61.96
54900;BME280;40801;41.924;25.562;2022-12-11T07:55:31;97711.13;;;19.62;61.95
54900;BME280;40801;41.924;25.562;2022-12-11T07:57:57;97706.47;;;19.59;61.83
54900;BME280;40801;41.924;25.562;2022-12-11T08:00:22;97706.47;;;19.59;62.21
54900;BME280;40801;41.924;25.562;2022-12-11T08:02:49;97714.16;;;19.74;61.81
54900;BME280;40801;41.924;25.562;2022-12-11T08:05:14;97721.03;;;19.90;60.66
54900;BME280;40801;41.924;25.562;2022-12-11T08:07:40;97712.50;;;19.84;61.13
54900;BME280;40801;41.924;25.562;2022-12-11T08:10:05;97709.72;;;19.88;61.38
54900;BME280;40801;41.924;25.562;2022-12-11T08:12:31;97719.13;;;19.83;61.60
54900;BME280;40801;41.924;25.562;2022-12-11T08:14:56;97705.19;;;19.74;61.54
54900;BME280;40801;41.924;25.562;2022-12-11T08:17:22;97697.78;;;19.71;61.27
54900;BME280;40801;41.924;25.562;2022-12-11T08:19:47;97691.81;;;19.79;61.12
54900;BME280;40801;41.924;25.562;2022-12-11T08:22:12;97692.72;;;19.69;61.28
54900;BME280;40801;41.924;25.562;2022-12-11T08:24:38;97680.94;;;19.76;61.18
54900;BME280;40801;41.924;25.562;2022-12-11T08:27:04;97676.16;;;19.84;61.11
54900;BME280;40801;41.924;25.562;2022-12-11T08:29:30;97675.78;;;19.82;61.69
54900;BME280;40801;41.924;25.562;2022-12-11T08:31:55;97684.31;;;19.87;61.43
54900;BME280;40801;41.924;25.562;2022-12-11T08:34:21;97673.91;;;19.75;61.97
54900;BME280;40801;41.924;25.562;2022-12-11T08:36:46;97674.03;;;19.98;61.82
54900;BME280;40801;41.924;25.562;2022-12-11T08:39:12;97662.28;;;20.01;61.59
54900;BME280;40801;41.924;25.562;2022-12-11T08:41:37;97667.66;;;20.08;61.52
54900;BME280;40801;41.924;25.562;2022-12-11T08:44:02;97670.25;;;20.19;61.58
54900;BME280;40801;41.924;25.562;2022-12-11T08:46:30;97666.09;;;20.41;61.52
54900;BME280;40801;41.924;25.562;2022-12-11T08:48:56;97678.19;;;20.98;59.82
54900;BME280;40801;41.924;25.562;2022-12-11T08:51:24;97688.44;;;20.94;58.10
54900;BME280;40801;41.924;25.562;2022-12-11T08:53:50;97705.47;;;20.82;58.25
54900;BME280;40801;41.924;25.562;2022-12-11T08:56:19;97700.84;;;20.75;58.55
54900;BME280;40801;41.924;25.562;2022-12-11T08:58:45;97700.69;;;20.59;58.99
54900;BME280;40801;41.924;25.562;2022-12-11T09:01:13;97712.53;;;20.49;58.99
54900;BME280;40801;41.924;25.562;2022-12-11T09:03:39;97702.69;;;20.55;59.04
54900;BME280;40801;41.924;25.562;2022-12-11T09:06:06;97698.69;;;20.63;59.36
54900;BME280;40801;41.924;25.562;2022-12-11T09:08:32;97704.75;;;21.01;58.49
54900;BME280;40801;41.924;25.562;2022-12-11T09:11:06;97695.09;;;21.20;57.05
54900;BME280;40801;41.924;25.562;2022-12-11T09:13:32;97690.06;;;21.42;57.18
54900;BME280;40801;41.924;25.562;2022-12-11T09:15:58;97687.75;;;21.13;57.18
54900;BME280;40801;41.924;25.562;2022-12-11T09:18:23;97688.25;;;21.04;57.18
54900;BME280;40801;41.924;25.562;2022-12-11T09:21:07;97679.13;;;20.88;57.06
54900;BME280;40801;41.924;25.562;2022-12-11T09:23:33;97682.28;;;20.59;57.86
54900;BME280;40801;41.924;25.562;2022-12-11T09:25:58;97678.19;;;20.44;57.96
54900;BME280;40801;41.924;25.562;2022-12-11T09:28:24;97676.66;;;20.39;57.96
54900;BME280;40801;41.924;25.562;2022-12-11T09:30:50;97675.66;;;20.26;58.62
54900;BME280;40801;41.924;25.562;2022-12-11T09:33:16;97664.38;;;20.21;58.59
54900;BME280;40801;41.924;25.562;2022-12-11T09:35:41;97659.72;;;20.18;58.80
54900;BME280;40801;41.924;25.562;2022-12-11T09:38:07;97648.28;;;20.26;58.44
54900;BME280;40801;41.924;25.562;2022-12-11T09:40:39;97657.69;;;20.25;58.69
54900;BME280;40801;41.924;25.562;2022-12-11T09:45:52;97665.91;;;20.25;59.29
54900;BME280;40801;41.924;25.562;2022-12-11T09:48:21;97653.31;;;20.31;59.02
54900;BME280;40801;41.924;25.562;2022-12-11T09:50:50;97655.16;;;20.38;58.90
54900;BME280;40801;41.924;25.562;2022-12-11T09:53:28;97647.53;;;20.53;58.46
54900;BME280;40801;41.924;25.562;2022-12-11T10:01:06;97654.53;;;20.84;57.98
54900;BME280;40801;41.924;25.562;2022-12-11T10:06:32;97645.75;;;21.43;56.05
54900;BME280;40801;41.924;25.562;2022-12-11T10:14:42;97638.06;;;21.34;54.47
54900;BME280;40801;41.924;25.562;2022-12-11T10:17:15;97637.06;;;21.25;55.56
54900;BME280;40801;41.924;25.562;2022-12-11T10:19:44;97637.22;;;21.38;55.33
54900;BME280;40801;41.924;25.562;2022-12-11T10:22:15;97645.94;;;21.32;55.52
54900;BME280;40801;41.924;25.562;2022-12-11T10:24:57;97641.56;;;21.35;54.81
54900;BME280;40801;41.924;25.562;2022-12-11T10:27:31;97636.09;;;21.35;54.50
54900;BME280;40801;41.924;25.562;2022-12-11T10:32:51;97648.06;;;21.21;53.90
54900;BME280;40801;41.924;25.562;2022-12-11T10:35:26;97640.56;;;21.25;54.38
54900;BME280;40801;41.924;25.562;2022-12-11T10:38:05;97630.41;;;21.22;54.17
54900;BME280;40801;41.924;25.562;2022-12-11T10:40:34;97624.53;;;21.24;54.26
54900;BME280;40801;41.924;25.562;2022-12-11T10:43:01;97619.75;;;21.51;53.37
54900;BME280;40801;41.924;25.562;2022-12-11T10:45:26;97621.31;;;21.72;53.06
54900;BME280;40801;41.924;25.562;2022-12-11T10:48:04;97612.09;;;22.02;51.80
54900;BME280;40801;41.924;25.562;2022-12-11T10:50:30;97607.88;;;21.98;52.27
54900;BME280;40801;41.924;25.562;2022-12-11T10:52:57;97595.19;;;22.23;52.50
54900;BME280;40801;41.924;25.562;2022-12-11T10:55:37;97595.00;;;22.67;50.41
54900;BME280;40801;41.924;25.562;2022-12-11T10:58:16;97602.47;;;22.82;49.34
54900;BME280;40801;41.924;25.562;2022-12-11T11:00:42;97596.56;;;23.00;48.81
54900;BME280;40801;41.924;25.562;2022-12-11T11:03:23;97591.53;;;23.44;48.05
54900;BME280;40801;41.924;25.562;2022-12-11T11:06:01;97582.81;;;24.03;47.27
54900;BME280;40801;41.924;25.562;2022-12-11T11:08:40;97582.19;;;24.37;45.43
54900;BME280;40801;41.924;25.562;2022-12-11T11:11:05;97585.56;;;24.92;45.17
54900;BME280;40801;41.924;25.562;2022-12-11T11:13:33;97587.94;;;25.28;43.53
54900;BME280;40801;41.924;25.562;2022-12-11T11:16:07;97581.81;;;25.68;43.13
54900;BME280;40801;41.924;25.562;2022-12-11T11:18:38;97573.97;;;25.88;42.57
54900;BME280;40801;41.924;25.562;2022-12-11T11:21:05;97577.34;;;25.83;41.04
54900;BME280;40801;41.924;25.562;2022-12-11T11:23:32;97583.66;;;26.15;40.81
54900;BME280;40801;41.924;25.562;2022-12-11T11:26:00;97581.50;;;26.41;40.80
54900;BME280;40801;41.924;25.562;2022-12-11T11:28:53;97586.75;;;26.48;39.13
54900;BME280;40801;41.924;25.562;2022-12-11T11:31:21;97579.63;;;26.87;38.59
54900;BME280;40801;41.924;25.562;2022-12-11T11:34:04;97590.34;;;27.25;37.00
54900;BME280;40801;41.924;25.562;2022-12-11T11:36:32;97602.03;;;27.29;38.37
54900;BME280;40801;41.924;25.562;2022-12-11T11:39:03;97602.06;;;27.57;37.57
54900;BME280;40801;41.924;25.562;2022-12-11T11:41:36;97591.13;;;27.71;37.56
54900;BME280;40801;41.924;25.562;2022-12-11T11:44:07;97580.50;;;27.88;36.73
54900;BME280;40801;41.924;25.562;2022-12-11T11:46:45;97593.72;;;28.54;35.24
54900;BME280;40801;41.924;25.562;2022-12-11T11:52:11;97580.84;;;28.42;35.86
54900;BME280;40801;41.924;25.562;2022-12-11T11:54:49;97576.66;;;28.79;34.37
54900;BME280;40801;41.924;25.562;2022-12-11T11:57:40;97578.88;;;28.99;33.94
54900;BME280;40801;41.924;25.562;2022-12-11T12:02:48;97568.38;;;28.37;34.94
54900;BME280;40801;41.924;25.562;2022-12-11T12:05:20;97573.44;;;27.51;36.06
54900;BME280;40801;41.924;25.562;2022-12-11T12:13:24;97561.31;;;26.31;37.52
54900;BME280;40801;41.924;25.562;2022-12-11T12:15:59;97553.56;;;26.48;37.44
54900;BME280;40801;41.924;25.562;2022-12-11T12:18:51;97543.59;;;27.09;36.82
54900;BME280;40801;41.924;25.562;2022-12-11T12:26:45;97536.53;;;27.63;34.62
54900;BME280;40801;41.924;25.562;2022-12-11T12:48:16;97546.50;;;21.88;47.21
54900;BME280;40801;41.924;25.562;2022-12-11T12:50:45;97550.88;;;21.65;47.94
54900;BME280;40801;41.924;25.562;2022-12-11T12:53:23;97549.84;;;21.59;48.57
54900;BME280;40801;41.924;25.562;2022-12-11T12:55:50;97547.50;;;21.58;48.79
54900;BME280;40801;41.924;25.562;2022-12-11T12:58:40;97546.47;;;22.44;47.92
54900;BME280;40801;41.924;25.562;2022-12-11T13:01:18;97531.84;;;23.12;46.39
54900;BME280;40801;41.924;25.562;2022-12-11T13:03:55;97539.56;;;24.29;43.40
54900;BME280;40801;41.924;25.562;2022-12-11T13:06:50;97522.88;;;24.46;42.74
54900;BME280;40801;41.924;25.562;2022-12-11T13:09:18;97537.31;;;24.12;43.74
54900;BME280;40801;41.924;25.562;2022-12-11T13:11:44;97530.34;;;23.94;43.56
54900;BME280;40801;41.924;25.562;2022-12-11T13:16:44;97540.72;;;22.54;46.34
54900;BME280;40801;41.924;25.562;2022-12-11T13:24:28;97550.91;;;21.22;49.73
54900;BME280;40801;41.924;25.562;2022-12-11T13:26:55;97567.28;;;20.83;50.41
54900;BME280;40801;41.924;25.562;2022-12-11T13:29:46;97569.66;;;20.57;50.99
54900;BME280;40801;41.924;25.562;2022-12-11T13:34:42;97566.19;;;20.23;52.45
54900;BME280;40801;41.924;25.562;2022-12-11T13:39:51;97576.31;;;20.56;52.50
54900;BME280;40801;41.924;25.562;2022-12-11T13:42:33;97569.16;;;20.35;53.17
54900;BME280;40801;41.924;25.562;2022-12-11T13:45:00;97572.50;;;20.20;53.69
54900;BME280;40801;41.924;25.562;2022-12-11T13:47:27;97578.06;;;20.13;53.93
54900;BME280;40801;41.924;25.562;2022-12-11T13:50:10;97585.72;;;19.98;54.35
54900;BME280;40801;41.924;25.562;2022-12-11T13:52:36;97580.81;;;19.82;54.94
54900;BME280;40801;41.924;25.562;2022-12-11T13:55:16;97581.00;;;19.68;55.94
54900;BME280;40801;41.924;25.562;2022-12-11T13:57:45;97592.44;;;19.56;56.37
54900;BME280;40801;41.924;25.562;2022-12-11T14:00:26;97577.00;;;19.38;56.93
54900;BME280;40801;41.924;25.562;2022-12-11T14:02:54;97566.97;;;19.25;57.54
54900;BME280;40801;41.924;25.562;2022-12-11T14:05:20;97576.38;;;19.24;57.78
54900;BME280;40801;41.924;25.562;2022-12-11T14:07:48;97573.34;;;19.14;57.80
54900;BME280;40801;41.924;25.562;2022-12-11T14:10:18;97571.91;;;18.99;58.54
54900;BME280;40801;41.924;25.562;2022-12-11T14:12:52;97569.63;;;18.94;58.86
54900;BME280;40801;41.924;25.562;2022-12-11T14:15:20;97582.78;;;18.54;60.74
54900;BME280;40801;41.924;25.562;2022-12-11T14:17:46;97574.59;;;18.54;60.44
54900;BME280;40801;41.924;25.562;2022-12-11T14:20:23;97569.53;;;18.53;61.11
54900;BME280;40801;41.924;25.562;2022-12-11T14:22:50;97577.38;;;18.51;60.49
54900;BME280;40801;41.924;25.562;2022-12-11T14:25:24;97577.41;;;18.40;61.27
54900;BME280;40801;41.924;25.562;2022-12-11T14:27:54;97572.41;;;18.32;61.68
54900;BME280;40801;41.924;25.562;2022-12-11T14:32:47;97590.03;;;18.16;62.31